createdAt,value
2019-05-22T00:00:27.744Z,80.90
2019-05-22T00:02:58.334Z,81.00
2019-05-22T00:05:31.618Z,81.10
2019-05-22T00:08:03.067Z,81.20
2019-05-22T00:10:34.061Z,81.20
2019-05-22T00:13:04.782Z,81.00
2019-05-22T00:15:38.451Z,81.00
2019-05-22T00:18:07.705Z,81.00
2019-05-22T00:20:37.359Z,81.20
2019-05-22T00:23:11.214Z,80.90
2019-05-22T00:25:41.149Z,81.00
2019-05-22T00:28:10.812Z,81.00
2019-05-22T00:30:42.178Z,81.00
2019-05-22T00:33:12.601Z,80.80
2019-05-22T00:35:42.317Z,81.30
2019-05-22T00:38:12.020Z,81.50
2019-05-22T00:40:42.501Z,81.50
2019-05-22T00:43:14.547Z,81.40
2019-05-22T00:45:46.160Z,81.60
2019-05-22T00:48:16.384Z,81.50
2019-05-22T00:50:53.851Z,81.40
2019-05-22T00:53:45.214Z,81.70
2019-05-22T00:56:16.887Z,81.50
2019-05-22T00:58:58.553Z,81.50
2019-05-22T01:01:32.499Z,81.60
2019-05-22T01:04:02.953Z,81.50
2019-05-22T01:06:33.437Z,81.60
2019-05-22T01:09:04.707Z,81.80
2019-05-22T01:11:34.125Z,81.80
2019-05-22T01:14:04.660Z,81.70
2019-05-22T01:16:34.182Z,81.80
2019-05-22T01:19:03.726Z,81.90
2019-05-22T01:21:33.722Z,81.80
2019-05-22T01:24:04.711Z,80.70
2019-05-22T01:26:34.419Z,81.70
2019-05-22T01:29:04.528Z,81.60
2019-05-22T01:31:37.647Z,81.70
2019-05-22T01:34:09.921Z,81.60
2019-05-22T01:36:49.450Z,81.70
2019-05-22T01:39:38.006Z,81.80
2019-05-22T01:42:11.163Z,81.80
2019-05-22T01:44:40.787Z,82.50
2019-05-22T01:47:13.595Z,82.00
2019-05-22T01:49:51.738Z,82.10
2019-05-22T01:52:22.458Z,82.10
2019-05-22T01:54:52.897Z,82.20
2019-05-22T01:57:22.881Z,82.30
2019-05-22T01:59:52.951Z,82.40
2019-05-22T02:02:24.764Z,82.30
2019-05-22T02:04:54.400Z,82.20
2019-05-22T02:07:24.571Z,82.30
2019-05-22T02:09:55.177Z,82.40
2019-05-22T02:12:51.352Z,82.30
2019-05-22T02:15:22.085Z,82.30
2019-05-22T02:17:52.369Z,82.00
2019-05-22T02:20:22.638Z,82.30
2019-05-22T02:22:52.130Z,82.40
2019-05-22T02:25:21.248Z,82.70
2019-05-22T02:27:51.113Z,82.50
2019-05-22T02:30:22.990Z,82.70
2019-05-22T02:32:52.995Z,82.80
2019-05-22T02:35:22.909Z,82.70
2019-05-22T02:37:52.071Z,82.60
2019-05-22T02:40:36.846Z,82.70
2019-05-22T02:43:08.246Z,82.70
2019-05-22T02:45:37.113Z,82.60
2019-05-22T02:48:08.373Z,82.50
2019-05-22T02:50:39.452Z,82.60
2019-05-22T02:53:11.441Z,82.60
2019-05-22T02:55:40.856Z,82.80
2019-05-22T02:58:11.141Z,82.80
2019-05-22T03:00:58.612Z,82.90
2019-05-22T03:03:27.687Z,82.80
2019-05-22T03:05:56.630Z,82.60
2019-05-22T03:08:28.542Z,82.60
2019-05-22T03:10:57.904Z,82.70
2019-05-22T03:13:49.773Z,82.90
2019-05-22T03:16:18.662Z,83.00
2019-05-22T03:18:47.586Z,82.90
2019-05-22T03:21:17.028Z,83.00
2019-05-22T03:23:46.119Z,83.00
2019-05-22T03:26:17.100Z,82.90
2019-05-22T03:28:46.294Z,82.90
2019-05-22T03:31:16.541Z,82.90
2019-05-22T03:33:47.473Z,82.90
2019-05-22T03:36:18.272Z,82.90
2019-05-22T03:38:47.816Z,82.90
2019-05-22T03:41:18.631Z,82.80
2019-05-22T03:43:48.639Z,82.90
2019-05-22T03:46:32.654Z,82.90
2019-05-22T03:49:01.854Z,82.80
2019-05-22T03:51:31.007Z,82.80
2019-05-22T03:54:01.723Z,83.30
2019-05-22T03:56:32.854Z,82.80
2019-05-22T03:59:02.639Z,82.60
2019-05-22T04:01:32.914Z,82.30
2019-05-22T04:04:05.842Z,82.10
2019-05-22T04:06:37.215Z,82.10
2019-05-22T04:09:15.032Z,82.00
2019-05-22T04:11:46.788Z,82.30
2019-05-22T04:14:16.651Z,82.40
2019-05-22T04:16:47.557Z,82.40
2019-05-22T04:19:16.699Z,82.50
2019-05-22T04:21:46.751Z,82.30
2019-05-22T04:24:15.925Z,82.10
2019-05-22T04:26:44.953Z,82.10
2019-05-22T04:29:14.491Z,82.10
2019-05-22T04:31:50.608Z,82.20
2019-05-22T04:34:20.964Z,82.40
2019-05-22T04:36:54.150Z,82.40
2019-05-22T04:39:25.978Z,82.40
2019-05-22T04:41:57.992Z,82.40
2019-05-22T04:44:28.039Z,82.40
2019-05-22T04:46:57.162Z,82.50
2019-05-22T04:49:26.211Z,82.30
2019-05-22T04:51:56.063Z,82.30
2019-05-22T04:54:25.011Z,82.20
2019-05-22T04:56:54.532Z,82.20
2019-05-22T04:59:24.270Z,82.30
2019-05-22T05:01:53.139Z,82.40
2019-05-22T05:04:22.326Z,82.20
2019-05-22T05:06:51.343Z,82.00
2019-05-22T05:09:20.764Z,81.80
2019-05-22T05:11:50.207Z,81.80
2019-05-22T05:14:19.123Z,81.80
2019-05-22T05:16:48.964Z,82.40
2019-05-22T05:19:18.217Z,81.60
2019-05-22T05:21:47.138Z,81.30
2019-05-22T05:24:16.020Z,81.20
2019-05-22T05:26:46.360Z,81.20
2019-05-22T05:29:26.584Z,81.20
2019-05-22T05:31:55.438Z,81.10
2019-05-22T05:34:45.605Z,81.00
2019-05-22T05:37:17.156Z,80.90
2019-05-22T05:39:54.952Z,81.60
2019-05-22T05:42:23.873Z,80.90
2019-05-22T05:44:52.729Z,80.60
2019-05-22T05:47:21.696Z,80.10
2019-05-22T05:49:51.403Z,79.90
2019-05-22T05:52:21.324Z,79.20
2019-05-22T05:54:51.693Z,79.20
2019-05-22T05:57:38.822Z,78.50
2019-05-22T06:00:11.456Z,78.00
2019-05-22T06:02:53.989Z,77.80
2019-05-22T06:05:11.338Z,77.50
2019-05-22T06:07:40.452Z,77.20
2019-05-22T06:10:28.429Z,76.60
2019-05-22T06:12:57.810Z,76.10
2019-05-22T06:15:47.103Z,76.00
2019-05-22T06:18:18.015Z,76.00
2019-05-22T06:21:02.738Z,75.80
2019-05-22T06:23:27.667Z,75.30
2019-05-22T06:25:58.388Z,74.60
2019-05-22T06:28:29.787Z,74.20
2019-05-22T06:31:05.404Z,73.80
2019-05-22T06:33:38.922Z,73.20
2019-05-22T06:36:11.761Z,72.90
2019-05-22T06:38:53.459Z,72.80
2019-05-22T06:41:24.597Z,72.80
2019-05-22T06:44:28.649Z,72.50
2019-05-22T06:46:58.322Z,72.30
2019-05-22T06:49:36.239Z,72.40
2019-05-22T06:52:07.659Z,71.90
2019-05-22T06:54:35.998Z,71.20
2019-05-22T06:57:07.260Z,71.90
2019-05-22T06:59:36.574Z,71.60
2019-05-22T07:02:05.983Z,70.70
2019-05-22T07:04:36.636Z,70.20
2019-05-22T07:07:06.383Z,70.30
2019-05-22T07:09:37.254Z,70.40
2019-05-22T07:12:06.362Z,69.70
2019-05-22T07:14:37.682Z,69.40
2019-05-22T07:17:07.726Z,68.70
2019-05-22T07:19:38.187Z,68.20
2019-05-22T07:22:08.192Z,67.80
2019-05-22T07:24:38.069Z,67.60
2019-05-22T07:27:25.088Z,68.00
2019-05-22T07:29:54.815Z,68.50
2019-05-22T07:32:23.976Z,68.70
2019-05-22T07:34:53.295Z,68.20
2019-05-22T07:37:23.078Z,67.70
2019-05-22T07:39:52.441Z,66.80
2019-05-22T07:42:21.332Z,67.00
2019-05-22T07:44:50.309Z,66.90
2019-05-22T07:47:22.651Z,66.50
2019-05-22T07:49:51.607Z,66.50
2019-05-22T07:52:21.600Z,66.10
2019-05-22T07:54:52.360Z,65.80
2019-05-22T07:57:23.988Z,65.40
2019-05-22T07:59:52.981Z,65.30
2019-05-22T08:02:24.911Z,64.50
2019-05-22T08:04:53.998Z,64.90
2019-05-22T08:07:24.824Z,65.30
2019-05-22T08:09:54.011Z,64.90
2019-05-22T08:12:23.240Z,64.50
2019-05-22T08:14:52.739Z,64.60
2019-05-22T08:17:21.980Z,64.10
2019-05-22T08:19:51.025Z,63.20
2019-05-22T08:22:20.519Z,63.50
2019-05-22T08:24:50.568Z,62.40
2019-05-22T08:27:20.896Z,62.90
2019-05-22T08:29:50.136Z,62.60
2019-05-22T08:32:20.651Z,62.90
2019-05-22T08:34:49.676Z,61.90
2019-05-22T08:37:20.331Z,61.70
2019-05-22T08:39:49.765Z,62.00
2019-05-22T08:42:19.693Z,62.50
2019-05-22T08:44:48.754Z,63.10
2019-05-22T08:47:18.797Z,63.10
2019-05-22T08:49:47.993Z,62.40
2019-05-22T08:52:23.678Z,61.70
2019-05-22T08:54:49.630Z,61.70
2019-05-22T08:57:20.525Z,61.50
2019-05-22T08:59:49.518Z,61.90
2019-05-22T09:02:19.298Z,61.90
2019-05-22T09:04:48.472Z,61.80
2019-05-22T09:07:18.417Z,61.30
2019-05-22T09:09:47.318Z,60.80
2019-05-22T09:12:16.568Z,60.50
2019-05-22T09:14:45.564Z,60.80
2019-05-22T09:17:15.239Z,60.80
2019-05-22T09:19:44.160Z,60.80
2019-05-22T09:22:13.628Z,60.80
2019-05-22T09:24:43.486Z,60.80
2019-05-22T09:27:12.972Z,60.70
2019-05-22T09:29:41.900Z,60.40
2019-05-22T09:32:10.853Z,59.70
2019-05-22T09:34:39.725Z,59.50
2019-05-22T09:37:09.086Z,59.50
2019-05-22T09:39:37.912Z,59.00
2019-05-22T09:42:06.780Z,58.60
2019-05-22T09:44:36.800Z,58.60
2019-05-22T09:47:06.385Z,59.00
2019-05-22T09:49:35.714Z,58.40
2019-05-22T09:52:07.520Z,58.00
2019-05-22T09:54:38.005Z,58.00
2019-05-22T09:57:07.749Z,58.60
2019-05-22T09:59:36.738Z,58.30
2019-05-22T10:02:06.416Z,57.90
2019-05-22T10:04:36.905Z,58.50
2019-05-22T10:07:05.786Z,58.90
2019-05-22T10:09:35.202Z,58.60
2019-05-22T10:12:04.632Z,58.90
2019-05-22T10:14:33.503Z,58.20
2019-05-22T10:17:02.483Z,57.90
2019-05-22T10:19:31.483Z,57.60
2019-05-22T10:22:01.017Z,57.90
2019-05-22T10:24:29.960Z,58.80
2019-05-22T10:26:58.842Z,58.60
2019-05-22T10:29:31.420Z,58.20
2019-05-22T10:31:58.288Z,58.10
2019-05-22T10:34:27.605Z,58.40
2019-05-22T10:36:56.758Z,58.70
2019-05-22T10:39:26.641Z,58.70
2019-05-22T10:41:55.450Z,59.20
2019-05-22T10:44:24.565Z,58.70
2019-05-22T10:46:53.542Z,59.00
2019-05-22T10:49:22.641Z,59.10
2019-05-22T10:51:52.638Z,59.40
2019-05-22T10:54:21.629Z,59.50
2019-05-22T10:56:50.582Z,59.30
2019-05-22T10:59:19.460Z,59.70
2019-05-22T11:01:48.393Z,60.40
2019-05-22T11:04:19.492Z,60.90
2019-05-22T11:06:47.829Z,60.30
2019-05-22T11:09:17.386Z,60.20
2019-05-22T11:11:46.598Z,60.60
2019-05-22T11:14:15.582Z,61.20
2019-05-22T11:16:45.504Z,61.50
2019-05-22T11:19:14.650Z,60.40
2019-05-22T11:21:44.020Z,60.30
2019-05-22T11:24:12.965Z,60.90
2019-05-22T11:26:41.938Z,60.50
2019-05-22T11:29:10.804Z,60.10
2019-05-22T11:31:40.596Z,60.50
2019-05-22T11:34:09.674Z,60.50
2019-05-22T11:36:39.297Z,61.10
2019-05-22T11:39:11.571Z,61.10
2019-05-22T11:41:41.164Z,61.00
2019-05-22T11:44:10.485Z,61.10
2019-05-22T11:46:39.827Z,61.40
2019-05-22T11:49:08.840Z,61.30
2019-05-22T11:51:38.585Z,61.80
2019-05-22T11:54:09.705Z,61.80
2019-05-22T11:56:38.292Z,62.20
2019-05-22T11:59:08.122Z,62.10
2019-05-22T12:01:37.214Z,61.90
2019-05-22T12:04:09.422Z,62.20
2019-05-22T12:06:38.706Z,62.40
2019-05-22T12:09:09.866Z,62.60
2019-05-22T12:11:43.003Z,62.50
2019-05-22T12:14:10.549Z,62.20
2019-05-22T12:16:41.805Z,61.80
2019-05-22T12:19:11.297Z,62.10
2019-05-22T12:21:40.159Z,62.30
2019-05-22T12:24:26.029Z,62.80
2019-05-22T12:26:40.199Z,62.80
2019-05-22T12:29:09.242Z,62.90
2019-05-22T12:31:38.744Z,64.00
2019-05-22T12:34:07.956Z,63.40
2019-05-22T12:36:36.954Z,63.30
2019-05-22T12:39:08.379Z,63.60
2019-05-22T12:41:37.435Z,63.70
2019-05-22T12:44:06.440Z,63.30
2019-05-22T12:46:36.109Z,63.80
2019-05-22T12:49:08.807Z,63.90
2019-05-22T12:51:35.721Z,63.80
2019-05-22T12:54:05.195Z,63.50
2019-05-22T12:56:34.401Z,63.80
2019-05-22T12:59:03.646Z,63.80
2019-05-22T13:01:34.138Z,62.90
2019-05-22T13:04:06.685Z,63.50
2019-05-22T13:06:35.892Z,62.10
2019-05-22T13:09:07.757Z,61.80
2019-05-22T13:11:36.947Z,62.00
2019-05-22T13:14:05.939Z,62.10
2019-05-22T13:16:35.774Z,62.30
2019-05-22T13:19:04.656Z,62.40
2019-05-22T13:21:36.544Z,62.70
2019-05-22T13:24:14.122Z,63.30
2019-05-22T13:26:44.187Z,63.60
2019-05-22T13:29:14.841Z,63.10
2019-05-22T13:31:45.135Z,62.60
2019-05-22T13:34:17.006Z,62.50
2019-05-22T13:36:46.660Z,62.40
2019-05-22T13:39:17.271Z,62.50
2019-05-22T13:41:46.552Z,62.70
2019-05-22T13:44:16.669Z,62.70
2019-05-22T13:46:45.744Z,62.70
2019-05-22T13:49:15.009Z,63.00
2019-05-22T13:51:44.058Z,63.60
2019-05-22T13:54:14.984Z,63.60
2019-05-22T13:56:44.605Z,63.80
2019-05-22T13:59:15.097Z,64.30
2019-05-22T14:01:45.262Z,64.70
2019-05-22T14:04:14.553Z,64.60
2019-05-22T14:06:43.445Z,64.60
2019-05-22T14:09:20.385Z,64.80
2019-05-22T14:11:46.120Z,65.20
2019-05-22T14:14:15.477Z,65.40
2019-05-22T14:16:48.953Z,65.70
2019-05-22T14:19:15.220Z,66.00
2019-05-22T14:21:50.696Z,66.30
2019-05-22T14:24:14.674Z,66.90
2019-05-22T14:27:02.865Z,67.10
2019-05-22T14:29:31.790Z,65.50
2019-05-22T14:32:00.732Z,67.30
2019-05-22T14:34:30.007Z,67.50
2019-05-22T14:37:00.112Z,68.40
2019-05-22T14:39:30.609Z,68.50
2019-05-22T14:41:59.691Z,69.10
2019-05-22T14:44:28.650Z,69.30
2019-05-22T14:47:11.836Z,69.30
2019-05-22T14:49:28.324Z,69.60
2019-05-22T14:51:57.740Z,70.00
2019-05-22T14:54:27.061Z,70.30
2019-05-22T14:56:56.018Z,70.90
2019-05-22T14:59:25.983Z,71.10
2019-05-22T15:01:54.877Z,71.10
2019-05-22T15:04:24.664Z,71.40
2019-05-22T15:06:54.162Z,72.10
2019-05-22T15:09:23.038Z,72.20
2019-05-22T15:11:52.321Z,72.60
2019-05-22T15:14:21.352Z,73.10
2019-05-22T15:16:50.234Z,73.40
2019-05-22T15:19:20.590Z,73.80
2019-05-22T15:21:49.505Z,73.60
2019-05-22T15:24:19.039Z,73.60
2019-05-22T15:26:48.655Z,73.80
2019-05-22T15:29:18.448Z,74.10
2019-05-22T15:31:48.445Z,74.30
2019-05-22T15:34:18.821Z,74.10
2019-05-22T15:36:48.207Z,74.30
2019-05-22T15:39:20.498Z,74.20
2019-05-22T15:41:50.368Z,74.80
2019-05-22T15:44:20.749Z,75.00
2019-05-22T15:46:50.378Z,75.00
2019-05-22T15:49:20.308Z,75.20
2019-05-22T15:51:51.517Z,75.10
2019-05-22T15:54:20.897Z,75.20
2019-05-22T15:56:50.589Z,75.30
2019-05-22T15:59:22.033Z,75.60
2019-05-22T16:01:51.900Z,75.70
2019-05-22T16:04:23.431Z,75.70
2019-05-22T16:06:53.040Z,75.90
2019-05-22T16:09:25.540Z,76.00
2019-05-22T16:11:55.630Z,76.20
2019-05-22T16:14:27.701Z,76.20
2019-05-22T16:16:58.090Z,76.30
2019-05-22T16:19:28.442Z,76.10
2019-05-22T16:22:00.286Z,76.10
2019-05-22T16:24:29.360Z,76.20
2019-05-22T16:26:58.241Z,76.20
2019-05-22T16:29:28.601Z,76.30
2019-05-22T16:32:00.606Z,76.40
2019-05-22T16:34:30.188Z,76.30
2019-05-22T16:37:03.421Z,76.80
2019-05-22T16:39:29.978Z,77.90
2019-05-22T16:41:59.539Z,77.10
2019-05-22T16:44:29.224Z,77.20
2019-05-22T16:46:59.032Z,77.30
2019-05-22T16:49:28.899Z,77.60
2019-05-22T16:52:01.230Z,77.70
2019-05-22T16:54:31.988Z,77.80
2019-05-22T16:57:02.086Z,77.80
2019-05-22T16:59:36.434Z,78.00
2019-05-22T17:02:04.768Z,78.10
2019-05-22T17:04:33.671Z,78.30
2019-05-22T17:07:02.552Z,78.20
2019-05-22T17:09:31.843Z,78.30
2019-05-22T17:12:05.010Z,78.00
2019-05-22T17:14:35.804Z,78.10
2019-05-22T17:17:05.687Z,77.80
2019-05-22T17:19:34.904Z,77.90
2019-05-22T17:22:03.799Z,77.80
2019-05-22T17:24:34.318Z,77.90
2019-05-22T17:27:05.229Z,78.10
2019-05-22T17:29:34.477Z,78.30
2019-05-22T17:32:05.475Z,78.40
2019-05-22T17:34:37.978Z,78.60
2019-05-22T17:37:09.741Z,78.50
2019-05-22T17:39:41.288Z,78.60
2019-05-22T17:42:12.155Z,78.80
2019-05-22T17:44:46.015Z,78.80
2019-05-22T17:47:17.686Z,79.00
2019-05-22T17:49:47.196Z,79.20
2019-05-22T17:52:18.135Z,79.20
2019-05-22T17:54:47.511Z,79.40
2019-05-22T17:57:16.833Z,79.50
2019-05-22T17:59:45.668Z,79.50
2019-05-22T18:02:16.188Z,79.50
2019-05-22T18:04:45.390Z,79.40
2019-05-22T18:07:16.014Z,79.40
2019-05-22T18:09:45.283Z,79.40
2019-05-22T18:12:14.693Z,79.60
2019-05-22T18:14:43.598Z,79.50
2019-05-22T18:17:13.770Z,79.40
2019-05-22T18:19:45.682Z,80.40
2019-05-22T18:22:14.761Z,79.50
2019-05-22T18:24:43.686Z,79.60
2019-05-22T18:27:12.714Z,79.60
2019-05-22T18:29:41.544Z,79.60
2019-05-22T18:32:11.625Z,79.50
2019-05-22T18:34:40.516Z,79.40
2019-05-22T18:37:09.366Z,79.30
2019-05-22T18:39:38.345Z,79.30
2019-05-22T18:42:07.243Z,79.50
2019-05-22T18:44:36.131Z,79.60
2019-05-22T18:47:06.171Z,79.80
2019-05-22T18:49:35.035Z,79.70
2019-05-22T18:52:05.224Z,79.40
2019-05-22T18:54:34.138Z,79.50
2019-05-22T18:57:03.123Z,79.30
2019-05-22T18:59:32.163Z,79.20
2019-05-22T19:02:01.159Z,79.30
2019-05-22T19:04:30.620Z,79.10
2019-05-22T19:06:59.562Z,79.00
2019-05-22T19:09:28.513Z,79.00
2019-05-22T19:11:57.680Z,79.00
2019-05-22T19:14:26.804Z,79.00
2019-05-22T19:16:55.955Z,79.00
2019-05-22T19:19:28.201Z,79.10
2019-05-22T19:21:55.365Z,79.20
2019-05-22T19:24:24.249Z,79.30
2019-05-22T19:26:54.184Z,79.20
2019-05-22T19:29:23.083Z,79.10
2019-05-22T19:31:51.992Z,79.10
2019-05-22T19:34:21.008Z,79.20
2019-05-22T19:36:50.028Z,79.10
2019-05-22T19:39:20.392Z,78.90
2019-05-22T19:42:02.143Z,78.90
2019-05-22T19:44:20.752Z,78.90
2019-05-22T19:46:50.292Z,79.40
2019-05-22T19:49:19.917Z,78.90
2019-05-22T19:51:50.294Z,78.90
2019-05-22T19:54:19.594Z,79.00
2019-05-22T19:56:49.327Z,78.80
2019-05-22T19:59:19.185Z,78.70
2019-05-22T20:01:48.129Z,78.50
2019-05-22T20:04:17.470Z,78.60
2019-05-22T20:06:46.733Z,78.70
2019-05-22T20:09:15.578Z,78.60
2019-05-22T20:11:44.564Z,78.50
2019-05-22T20:14:13.873Z,78.40
2019-05-22T20:16:42.721Z,78.30
2019-05-22T20:19:12.190Z,78.30
2019-05-22T20:21:41.838Z,78.30
2019-05-22T20:24:12.021Z,78.30
2019-05-22T20:26:40.852Z,78.50
2019-05-22T20:29:10.276Z,78.10
2019-05-22T20:31:39.123Z,78.20
2019-05-22T20:34:08.504Z,78.20
2019-05-22T20:36:37.740Z,78.10
2019-05-22T20:39:09.421Z,78.10
2019-05-22T20:41:38.835Z,78.10
2019-05-22T20:44:08.732Z,78.00
2019-05-22T20:46:38.544Z,77.90
2019-05-22T20:49:09.167Z,78.10
2019-05-22T20:51:38.434Z,78.30
2019-05-22T20:54:08.928Z,78.10
2019-05-22T20:56:40.010Z,78.00
2019-05-22T20:59:10.654Z,77.90
2019-05-22T21:01:39.608Z,77.80
2019-05-22T21:04:12.949Z,77.80
2019-05-22T21:06:47.720Z,77.60
2019-05-22T21:09:16.543Z,77.80
2019-05-22T21:11:46.133Z,77.80
2019-05-22T21:14:15.015Z,77.80
2019-05-22T21:16:44.159Z,77.50
2019-05-22T21:19:14.889Z,77.40
2019-05-22T21:21:43.765Z,77.40
2019-05-22T21:24:14.192Z,77.30
2019-05-22T21:26:44.165Z,77.40
2019-05-22T21:29:13.587Z,77.30
2019-05-22T21:31:43.046Z,77.30
2019-05-22T21:34:11.936Z,77.20
2019-05-22T21:36:41.361Z,77.30
2019-05-22T21:39:12.336Z,77.20
2019-05-22T21:41:41.247Z,77.30
2019-05-22T21:44:10.478Z,77.20
2019-05-22T21:46:39.518Z,77.20
2019-05-22T21:49:09.665Z,77.30
2019-05-22T21:51:38.845Z,77.50
2019-05-22T21:54:09.734Z,77.30
2019-05-22T21:56:40.149Z,77.30
2019-05-22T21:59:09.919Z,77.50
2019-05-22T22:01:41.200Z,77.40
2019-05-22T22:04:20.403Z,77.30
2019-05-22T22:06:50.954Z,77.30
2019-05-22T22:09:20.589Z,77.40
2019-05-22T22:11:50.074Z,77.50
2019-05-22T22:14:19.508Z,78.20
2019-05-22T22:16:49.905Z,77.30
2019-05-22T22:19:20.191Z,77.50
2019-05-22T22:21:49.790Z,77.40
2019-05-22T22:24:18.875Z,77.50
2019-05-22T22:26:48.116Z,77.50
2019-05-22T22:29:17.293Z,77.50
2019-05-22T22:31:46.469Z,78.30
2019-05-22T22:34:20.896Z,77.60
2019-05-22T22:36:50.563Z,77.60
2019-05-22T22:39:21.724Z,77.50
2019-05-22T22:41:51.008Z,77.60
2019-05-22T22:44:21.276Z,77.70
2019-05-22T22:46:52.680Z,77.70
2019-05-22T22:49:23.816Z,77.70
2019-05-22T22:51:53.394Z,77.70
2019-05-22T22:54:22.537Z,77.60
2019-05-22T22:56:51.489Z,77.60
2019-05-22T22:59:21.214Z,77.50
2019-05-22T23:01:53.698Z,77.50
2019-05-22T23:04:26.856Z,77.60
2019-05-22T23:06:58.673Z,77.50
2019-05-22T23:09:28.091Z,77.40
2019-05-22T23:11:57.875Z,77.40
2019-05-22T23:14:27.725Z,77.60
2019-05-22T23:16:57.401Z,77.50
2019-05-22T23:19:38.242Z,77.40
2019-05-22T23:22:05.950Z,77.50
2019-05-22T23:24:38.038Z,77.40
2019-05-22T23:27:08.611Z,77.40
2019-05-22T23:29:38.860Z,77.40
2019-05-22T23:32:09.649Z,77.50
2019-05-22T23:34:39.029Z,77.50
2019-05-22T23:37:09.804Z,77.50
2019-05-22T23:39:40.285Z,77.60
2019-05-22T23:42:12.975Z,77.60
2019-05-22T23:44:43.415Z,77.70
2019-05-22T23:47:13.098Z,77.60
2019-05-22T23:49:42.981Z,77.70
2019-05-22T23:52:13.695Z,77.70
2019-05-22T23:54:44.142Z,77.80
2019-05-22T23:57:14.144Z,77.70
2019-05-22T23:59:45.510Z,77.80
